createdAt,value
2022-10-03T00:01:32.783Z,96.03
2022-10-03T00:04:15.262Z,95.72
2022-10-03T00:06:52.374Z,95.89
2022-10-03T00:09:36.776Z,95.90
2022-10-03T00:12:15.445Z,96.04
2022-10-03T00:14:54.751Z,96.29
2022-10-03T00:17:32.602Z,96.44
2022-10-03T00:20:16.098Z,96.23
2022-10-03T00:22:54.789Z,96.15
2022-10-03T00:25:35.024Z,96.25
2022-10-03T00:28:19.765Z,96.28
2022-10-03T00:31:07.481Z,96.17
2022-10-03T00:33:45.165Z,96.27
2022-10-03T00:36:21.511Z,96.40
2022-10-03T00:39:08.360Z,96.39
2022-10-03T00:41:55.453Z,96.47
2022-10-03T00:44:55.775Z,96.34
2022-10-03T00:47:47.833Z,96.33
2022-10-03T00:50:47.750Z,96.39
2022-10-03T00:53:34.335Z,96.42
2022-10-03T00:56:16.968Z,96.24
2022-10-03T00:59:09.540Z,96.46
2022-10-03T01:01:45.477Z,96.47
2022-10-03T01:04:46.573Z,96.52
2022-10-03T01:07:33.247Z,96.44
2022-10-03T01:10:20.115Z,96.68
2022-10-03T01:13:04.888Z,96.64
2022-10-03T01:15:45.079Z,96.45
2022-10-03T01:18:27.432Z,96.47
2022-10-03T01:21:04.579Z,96.26
2022-10-03T01:23:55.140Z,96.03
2022-10-03T01:26:50.498Z,96.12
2022-10-03T01:29:43.777Z,95.81
2022-10-03T01:32:18.780Z,95.84
2022-10-03T01:34:55.193Z,95.79
2022-10-03T01:37:29.804Z,95.76
2022-10-03T01:40:04.688Z,95.77
2022-10-03T01:42:41.002Z,95.84
2022-10-03T01:45:17.937Z,95.53
2022-10-03T01:47:51.562Z,95.34
2022-10-03T01:50:29.452Z,95.54
2022-10-03T01:53:05.171Z,95.58
2022-10-03T01:55:42.676Z,95.59
2022-10-03T01:58:20.549Z,95.43
2022-10-03T02:00:59.210Z,95.55
2022-10-03T02:03:32.176Z,95.56
2022-10-03T02:06:10.961Z,95.50
2022-10-03T02:08:52.955Z,95.56
2022-10-03T02:11:33.370Z,95.53
2022-10-03T02:14:23.381Z,95.60
2022-10-03T02:17:00.397Z,95.63
2022-10-03T02:19:33.140Z,95.30
2022-10-03T02:22:02.984Z,95.58
2022-10-03T02:24:44.766Z,95.46
2022-10-03T02:27:38.833Z,95.52
2022-10-03T02:30:19.879Z,95.48
2022-10-03T02:33:18.727Z,95.58
2022-10-03T02:36:21.055Z,95.59
2022-10-03T02:39:33.759Z,95.57
2022-10-03T02:42:32.656Z,95.29
2022-10-03T02:45:42.659Z,94.99
2022-10-03T02:48:49.952Z,95.05
2022-10-03T02:51:44.321Z,94.88
2022-10-03T02:54:45.946Z,94.65
2022-10-03T02:57:42.467Z,94.82
2022-10-03T03:00:15.162Z,95.12
2022-10-03T03:03:12.138Z,95.28
2022-10-03T03:06:25.549Z,94.87
2022-10-03T03:09:10.519Z,94.89
2022-10-03T03:12:40.451Z,94.88
2022-10-03T03:15:44.998Z,94.61
2022-10-03T03:18:23.669Z,94.65
2022-10-03T03:21:07.122Z,94.75
2022-10-03T03:24:12.623Z,94.66
2022-10-03T03:27:05.245Z,94.58
2022-10-03T03:29:43.906Z,94.49
2022-10-03T03:32:20.273Z,94.42
2022-10-03T03:35:00.569Z,94.42
2022-10-03T03:37:38.174Z,94.23
2022-10-03T03:40:19.941Z,94.25
2022-10-03T03:43:16.393Z,94.27
2022-10-03T03:45:56.629Z,94.52
2022-10-03T03:48:42.685Z,94.48
2022-10-03T03:51:23.514Z,94.56
2022-10-03T03:54:12.284Z,94.29
2022-10-03T03:57:01.800Z,94.32
2022-10-03T03:59:48.101Z,94.23
2022-10-03T04:02:32.153Z,94.00
2022-10-03T04:05:14.078Z,94.02
2022-10-03T04:07:53.663Z,93.90
2022-10-03T04:10:38.340Z,94.12
2022-10-03T04:13:32.077Z,94.00
2022-10-03T04:16:41.818Z,93.78
2022-10-03T04:19:17.417Z,93.79
2022-10-03T04:22:05.298Z,93.84
2022-10-03T04:24:55.166Z,93.58
2022-10-03T04:27:39.413Z,93.24
2022-10-03T04:30:14.681Z,93.69
2022-10-03T04:33:05.527Z,93.82
2022-10-03T04:36:13.269Z,93.87
2022-10-03T04:38:51.054Z,93.93
2022-10-03T04:41:30.006Z,93.69
2022-10-03T04:44:12.003Z,94.11
2022-10-03T04:46:49.283Z,93.97
2022-10-03T04:49:24.343Z,94.10
2022-10-03T04:51:59.068Z,94.00
2022-10-03T04:54:40.988Z,93.91
2022-10-03T04:57:23.982Z,94.05
2022-10-03T05:00:00.341Z,94.04
2022-10-03T05:02:49.081Z,94.02
2022-10-03T05:05:51.545Z,93.71
2022-10-03T05:08:36.504Z,93.92
2022-10-03T05:11:21.639Z,93.92
2022-10-03T05:14:01.002Z,93.81
2022-10-03T05:16:40.388Z,93.66
2022-10-03T05:19:51.609Z,93.42
2022-10-03T05:22:33.011Z,93.63
2022-10-03T05:25:17.803Z,93.55
2022-10-03T05:27:53.195Z,93.68
2022-10-03T05:30:37.463Z,93.67
2022-10-03T05:33:14.357Z,93.65
2022-10-03T05:35:56.722Z,93.68
2022-10-03T05:39:03.968Z,93.58
2022-10-03T05:41:35.630Z,93.56
2022-10-03T05:44:10.872Z,93.42
2022-10-03T05:46:59.055Z,93.20
2022-10-03T05:49:50.777Z,93.41
2022-10-03T05:52:48.656Z,93.33
2022-10-03T05:55:44.741Z,93.25
2022-10-03T05:58:32.561Z,93.26
2022-10-03T06:01:27.602Z,93.38
2022-10-03T06:04:15.837Z,93.30
2022-10-03T06:06:53.288Z,93.55
2022-10-03T06:09:43.776Z,93.31
2022-10-03T06:12:18.661Z,93.46
2022-10-03T06:15:21.144Z,93.12
2022-10-03T06:17:58.449Z,93.32
2022-10-03T06:20:56.705Z,92.89
2022-10-03T06:24:06.583Z,92.89
2022-10-03T06:27:07.414Z,92.74
2022-10-03T06:30:16.359Z,92.65
2022-10-03T06:33:19.438Z,92.82
2022-10-03T06:36:23.103Z,92.87
2022-10-03T06:39:55.534Z,92.66
2022-10-03T06:43:11.314Z,93.03
2022-10-03T06:46:16.086Z,92.94
2022-10-03T06:49:23.039Z,93.19
2022-10-03T06:52:07.335Z,93.18
2022-10-03T06:55:21.666Z,92.96
2022-10-03T06:58:17.261Z,92.76
2022-10-03T07:01:02.391Z,92.93
2022-10-03T07:04:06.654Z,92.86
2022-10-03T07:07:03.191Z,92.62
2022-10-03T07:10:17.165Z,92.38
2022-10-03T07:13:15.353Z,92.17
2022-10-03T07:16:24.091Z,92.03
2022-10-03T07:19:24.128Z,92.01
2022-10-03T07:22:23.611Z,92.07
2022-10-03T07:25:26.795Z,92.02
2022-10-03T07:28:22.853Z,91.91
2022-10-03T07:31:03.931Z,92.08
2022-10-03T07:33:51.072Z,91.82
2022-10-03T07:37:13.576Z,91.77
2022-10-03T07:40:14.592Z,91.67
2022-10-03T07:43:10.170Z,91.64
2022-10-03T07:45:43.021Z,91.76
2022-10-03T07:48:43.516Z,91.58
2022-10-03T07:51:19.995Z,91.86
2022-10-03T07:54:42.238Z,91.53
2022-10-03T07:57:31.956Z,91.51
2022-10-03T08:00:27.305Z,91.62
2022-10-03T08:03:37.376Z,91.20
2022-10-03T08:06:26.447Z,91.23
2022-10-03T08:09:35.590Z,90.87
2022-10-03T08:12:32.617Z,91.19
2022-10-03T08:15:11.238Z,90.80
2022-10-03T08:18:17.640Z,90.32
2022-10-03T08:20:56.444Z,90.42
2022-10-03T08:23:50.649Z,90.16
2022-10-03T08:26:36.743Z,89.89
2022-10-03T08:29:26.653Z,89.46
2022-10-03T08:32:39.901Z,88.80
2022-10-03T08:35:39.716Z,88.60
2022-10-03T08:38:46.174Z,88.32
2022-10-03T08:41:58.978Z,87.45
2022-10-03T08:45:08.609Z,87.44
2022-10-03T08:48:08.770Z,87.28
2022-10-03T08:50:50.887Z,87.38
2022-10-03T08:54:00.537Z,86.88
2022-10-03T08:56:46.070Z,87.11
2022-10-03T08:59:56.494Z,86.71
2022-10-03T09:07:05.142Z,86.16
2022-10-03T09:10:16.196Z,86.60
2022-10-03T09:13:26.659Z,86.63
2022-10-03T09:16:29.161Z,86.80
2022-10-03T09:19:20.378Z,86.83
2022-10-03T09:22:27.798Z,86.69
2022-10-03T09:25:15.713Z,86.74
2022-10-03T09:28:25.540Z,86.34
2022-10-03T09:31:06.309Z,86.59
2022-10-03T09:34:03.976Z,85.88
2022-10-03T09:37:04.540Z,85.42
2022-10-03T09:40:11.644Z,85.02
2022-10-03T09:43:14.880Z,84.46
2022-10-03T09:46:12.013Z,84.68
2022-10-03T09:49:09.286Z,84.17
2022-10-03T09:51:53.990Z,84.50
2022-10-03T09:54:55.432Z,83.52
2022-10-03T09:57:47.041Z,83.99
2022-10-03T10:00:22.354Z,84.39
2022-10-03T10:03:23.803Z,83.95
2022-10-03T10:06:24.988Z,84.49
2022-10-03T10:09:40.816Z,83.92
2022-10-03T10:12:55.636Z,83.88
2022-10-03T10:16:08.440Z,84.03
2022-10-03T10:19:10.798Z,83.92
2022-10-03T10:21:59.464Z,83.82
2022-10-03T10:25:09.317Z,83.11
2022-10-03T10:28:05.936Z,82.31
2022-10-03T10:31:03.708Z,81.90
2022-10-03T10:34:16.426Z,81.46
2022-10-03T10:37:19.217Z,81.49
2022-10-03T10:40:32.923Z,81.67
2022-10-03T10:43:41.914Z,81.18
2022-10-03T10:46:49.016Z,80.33
2022-10-03T10:50:08.049Z,79.74
2022-10-03T10:53:09.913Z,79.73
2022-10-03T10:56:13.321Z,79.67
2022-10-03T10:59:32.471Z,80.19
2022-10-03T11:02:42.705Z,80.56
2022-10-03T11:05:47.634Z,80.54
2022-10-03T11:08:51.592Z,80.99
2022-10-03T11:12:09.876Z,81.42
2022-10-03T11:15:11.510Z,81.82
2022-10-03T11:18:05.141Z,81.55
2022-10-03T11:21:07.036Z,81.01
2022-10-03T11:24:15.306Z,80.77
2022-10-03T11:27:28.587Z,80.25
2022-10-03T11:30:19.408Z,80.35
2022-10-03T11:33:26.628Z,79.77
2022-10-03T11:36:28.916Z,79.55
2022-10-03T11:39:05.717Z,79.90
2022-10-03T11:41:47.733Z,79.58
2022-10-03T11:44:23.446Z,79.86
2022-10-03T11:47:13.697Z,79.70
2022-10-03T11:50:01.704Z,79.61
2022-10-03T11:52:34.299Z,79.94
2022-10-03T11:55:26.515Z,78.27
2022-10-03T11:58:14.478Z,77.66
2022-10-03T12:00:47.686Z,77.61
2022-10-03T12:03:27.014Z,77.64
2022-10-03T12:06:13.689Z,77.99
2022-10-03T12:08:56.243Z,78.35
2022-10-03T12:11:28.383Z,78.59
2022-10-03T12:14:17.612Z,78.50
2022-10-03T12:17:07.417Z,78.04
2022-10-03T12:19:46.926Z,77.66
2022-10-03T12:22:30.642Z,76.79
2022-10-03T12:25:07.126Z,75.99
2022-10-03T12:27:51.829Z,74.89
2022-10-03T12:30:21.896Z,75.51
2022-10-03T12:33:08.205Z,75.38
2022-10-03T12:35:46.118Z,75.40
2022-10-03T12:38:25.833Z,74.94
2022-10-03T12:41:06.868Z,74.76
2022-10-03T12:43:49.075Z,74.26
2022-10-03T12:46:27.141Z,74.09
2022-10-03T12:49:01.180Z,73.53
2022-10-03T12:51:45.032Z,72.99
2022-10-03T12:54:26.855Z,73.26
2022-10-03T12:57:20.013Z,72.68
2022-10-03T12:59:55.524Z,73.05
2022-10-03T13:02:33.457Z,72.99
2022-10-03T13:05:33.253Z,72.36
2022-10-03T13:08:07.644Z,72.39
2022-10-03T13:10:42.826Z,71.90
2022-10-03T13:13:28.890Z,71.32
2022-10-03T13:16:14.548Z,71.24
2022-10-03T13:18:57.251Z,71.30
2022-10-03T13:21:45.863Z,71.66
2022-10-03T13:24:32.354Z,71.75
2022-10-03T13:27:30.472Z,71.79
2022-10-03T13:30:06.416Z,72.52
2022-10-03T13:32:37.833Z,72.69
2022-10-03T13:35:38.082Z,71.86
2022-10-03T13:38:27.298Z,71.95
2022-10-03T13:41:08.053Z,71.94
2022-10-03T13:43:40.495Z,71.81
2022-10-03T13:46:15.765Z,71.18
2022-10-03T13:48:55.064Z,71.00
2022-10-03T13:51:33.025Z,71.15
2022-10-03T13:54:07.939Z,71.08
2022-10-03T13:56:51.897Z,70.35
2022-10-03T13:59:39.315Z,70.03
2022-10-03T14:02:27.636Z,69.97
2022-10-03T14:05:20.168Z,69.93
2022-10-03T14:08:00.126Z,70.28
2022-10-03T14:11:00.898Z,68.71
2022-10-03T14:13:43.649Z,69.30
2022-10-03T14:16:20.418Z,69.34
2022-10-03T14:18:57.296Z,69.47
2022-10-03T14:21:38.637Z,69.25
2022-10-03T14:24:21.397Z,69.44
2022-10-03T14:26:56.481Z,69.70
2022-10-03T14:29:38.635Z,69.68
2022-10-03T14:32:42.471Z,70.19
2022-10-03T14:35:13.798Z,69.93
2022-10-03T14:37:47.570Z,69.81
2022-10-03T14:40:23.852Z,68.66
2022-10-03T14:43:07.505Z,68.25
2022-10-03T14:45:44.846Z,68.30
2022-10-03T14:48:18.854Z,68.10
2022-10-03T14:50:52.338Z,67.87
2022-10-03T14:53:25.468Z,67.71
2022-10-03T14:56:00.811Z,67.38
2022-10-03T14:58:33.542Z,67.22
2022-10-03T15:01:16.084Z,66.16
2022-10-03T15:03:53.500Z,66.58
2022-10-03T15:06:34.195Z,66.30
2022-10-03T15:09:11.692Z,66.05
2022-10-03T15:11:49.040Z,66.30
2022-10-03T15:14:18.121Z,66.63
2022-10-03T15:16:55.233Z,66.87
2022-10-03T15:19:33.893Z,66.87
2022-10-03T15:22:13.754Z,66.96
2022-10-03T15:24:43.035Z,67.10
2022-10-03T15:27:21.745Z,66.85
2022-10-03T15:29:55.444Z,67.05
2022-10-03T15:32:35.560Z,66.93
2022-10-03T15:35:04.930Z,67.40
2022-10-03T15:37:41.798Z,67.56
2022-10-03T15:40:23.368Z,67.26
2022-10-03T15:43:07.988Z,67.72
2022-10-03T15:45:38.812Z,68.13
2022-10-03T15:48:14.477Z,68.54
2022-10-03T15:50:45.907Z,68.37
2022-10-03T15:53:37.580Z,68.69
2022-10-03T15:56:12.298Z,68.87
2022-10-03T15:58:49.538Z,68.90
2022-10-03T16:01:22.580Z,69.42
2022-10-03T16:03:55.337Z,69.89
2022-10-03T16:06:32.269Z,70.44
2022-10-03T16:09:09.789Z,70.68
2022-10-03T16:11:48.793Z,70.68
2022-10-03T16:14:24.882Z,70.71
2022-10-03T16:16:58.023Z,71.01
2022-10-03T16:19:31.430Z,70.76
2022-10-03T16:22:18.582Z,70.85
2022-10-03T16:24:59.382Z,71.07
2022-10-03T16:27:31.235Z,71.01
2022-10-03T16:30:19.079Z,71.43
2022-10-03T16:32:54.158Z,71.48
2022-10-03T16:35:34.946Z,71.39
2022-10-03T16:38:09.751Z,71.52
2022-10-03T16:40:38.950Z,71.67
2022-10-03T16:43:11.611Z,71.95
2022-10-03T16:45:45.674Z,71.84
2022-10-03T16:48:39.146Z,71.93
2022-10-03T16:51:18.278Z,71.68
2022-10-03T16:53:49.256Z,71.45
2022-10-03T16:56:20.690Z,71.38
2022-10-03T16:58:53.534Z,71.60
2022-10-03T17:01:40.805Z,71.19
2022-10-03T17:04:21.990Z,71.25
2022-10-03T17:06:54.969Z,71.51
2022-10-03T17:09:34.192Z,71.47
2022-10-03T17:12:05.564Z,71.44
2022-10-03T17:14:39.042Z,71.96
2022-10-03T17:17:17.165Z,71.93
2022-10-03T17:19:51.185Z,72.10
2022-10-03T17:22:23.948Z,71.88
2022-10-03T17:24:56.089Z,72.15
2022-10-03T17:27:31.198Z,72.05
2022-10-03T17:30:04.338Z,72.09
2022-10-03T17:32:42.128Z,72.36
2022-10-03T17:35:16.578Z,72.75
2022-10-03T17:38:37.052Z,72.85
2022-10-03T17:41:15.166Z,73.07
2022-10-03T17:43:48.713Z,72.78
2022-10-03T17:46:24.554Z,73.40
2022-10-03T17:49:02.617Z,73.41
2022-10-03T17:51:36.681Z,73.50
2022-10-03T17:54:15.122Z,73.39
2022-10-03T17:56:49.401Z,73.67
2022-10-03T17:59:28.067Z,74.02
2022-10-03T18:02:02.026Z,73.94
2022-10-03T18:04:34.901Z,74.47
2022-10-03T18:07:08.038Z,74.31
2022-10-03T18:09:47.817Z,74.83
2022-10-03T18:12:23.476Z,75.10
2022-10-03T18:15:35.627Z,76.16
2022-10-03T18:18:21.264Z,76.10
2022-10-03T18:20:52.063Z,76.20
2022-10-03T18:23:53.232Z,76.40
2022-10-03T18:26:28.154Z,76.42
2022-10-03T18:29:11.814Z,76.63
2022-10-03T18:31:45.411Z,76.61
2022-10-03T18:34:21.045Z,76.93
2022-10-03T18:36:52.770Z,76.68
2022-10-03T18:39:25.388Z,76.86
2022-10-03T18:41:59.455Z,76.63
2022-10-03T18:44:30.596Z,76.60
2022-10-03T18:47:13.195Z,76.61
2022-10-03T18:49:47.968Z,76.57
2022-10-03T18:52:21.969Z,76.50
2022-10-03T18:54:59.381Z,76.42
2022-10-03T18:57:37.364Z,76.37
2022-10-03T19:00:09.284Z,76.22
2022-10-03T19:02:44.014Z,76.45
2022-10-03T19:05:19.136Z,76.78
2022-10-03T19:07:55.019Z,77.08
2022-10-03T19:10:35.023Z,77.08
2022-10-03T19:13:16.600Z,77.35
2022-10-03T19:16:12.788Z,77.47
2022-10-03T19:18:44.490Z,77.07
2022-10-03T19:21:20.094Z,77.16
2022-10-03T19:23:53.165Z,77.32
2022-10-03T19:26:26.888Z,77.77
2022-10-03T19:29:05.171Z,77.76
2022-10-03T19:31:40.468Z,77.54
2022-10-03T19:34:16.969Z,77.91
2022-10-03T19:36:49.459Z,78.01
2022-10-03T19:39:19.508Z,78.04
2022-10-03T19:41:53.124Z,77.80
2022-10-03T19:44:26.962Z,77.96
2022-10-03T19:47:05.417Z,77.67
2022-10-03T19:49:46.459Z,77.95
2022-10-03T19:52:22.056Z,78.11
2022-10-03T19:54:57.819Z,78.10
2022-10-03T19:57:31.134Z,78.57
2022-10-03T20:00:04.587Z,78.81
2022-10-03T20:02:33.790Z,78.77
2022-10-03T20:05:03.736Z,78.80
2022-10-03T20:07:46.568Z,78.96
2022-10-03T20:10:34.095Z,78.77
2022-10-03T20:13:03.981Z,78.70
2022-10-03T20:15:43.897Z,78.78
2022-10-03T20:18:22.566Z,78.91
2022-10-03T20:20:54.361Z,78.97
2022-10-03T20:23:24.582Z,79.30
2022-10-03T20:26:02.056Z,79.65
2022-10-03T20:28:51.220Z,79.96
2022-10-03T20:31:27.128Z,79.41
2022-10-03T20:33:57.962Z,79.02
2022-10-03T20:36:29.543Z,79.03
2022-10-03T20:39:05.763Z,79.11
2022-10-03T20:41:48.660Z,79.60
2022-10-03T20:44:28.275Z,79.32
2022-10-03T20:47:05.308Z,79.41
2022-10-03T20:49:38.459Z,79.47
2022-10-03T20:52:09.076Z,79.47
2022-10-03T20:54:48.427Z,79.38
2022-10-03T20:57:19.829Z,79.16
2022-10-03T20:59:50.438Z,79.21
2022-10-03T21:02:30.521Z,79.09
2022-10-03T21:05:03.989Z,78.90
2022-10-03T21:07:39.613Z,79.11
2022-10-03T21:10:19.352Z,79.25
2022-10-03T21:12:50.420Z,79.30
2022-10-03T21:15:30.139Z,79.57
2022-10-03T21:18:00.455Z,80.00
2022-10-03T21:20:35.737Z,79.85
2022-10-03T21:23:14.275Z,79.76
2022-10-03T21:25:45.148Z,79.30
2022-10-03T21:28:26.564Z,79.55
2022-10-03T21:31:16.335Z,79.55
2022-10-03T21:33:54.873Z,79.57
2022-10-03T21:36:30.599Z,79.86
2022-10-03T21:39:09.373Z,80.26
2022-10-03T21:41:46.960Z,80.20
2022-10-03T21:44:29.105Z,80.34
2022-10-03T21:47:06.175Z,80.32
2022-10-03T21:49:48.041Z,80.38
2022-10-03T21:52:32.393Z,80.08
2022-10-03T21:55:16.941Z,80.17
2022-10-03T21:57:55.410Z,80.30
2022-10-03T22:00:28.910Z,80.63
2022-10-03T22:03:06.309Z,80.72
2022-10-03T22:05:46.588Z,80.87
2022-10-03T22:08:21.482Z,80.66
2022-10-03T22:11:04.554Z,80.82
2022-10-03T22:13:38.171Z,81.03
2022-10-03T22:16:15.172Z,81.17
2022-10-03T22:19:09.818Z,81.45
2022-10-03T22:21:46.432Z,81.30
2022-10-03T22:24:23.451Z,81.57
2022-10-03T22:27:00.383Z,81.26
2022-10-03T22:29:36.234Z,81.21
2022-10-03T22:32:13.232Z,81.18
2022-10-03T22:34:50.228Z,81.02
2022-10-03T22:37:20.025Z,81.04
2022-10-03T22:39:48.472Z,81.41
2022-10-03T22:42:17.941Z,81.20
2022-10-03T22:44:51.212Z,81.39
2022-10-03T22:47:23.767Z,81.49
2022-10-03T22:49:58.869Z,81.43
2022-10-03T22:52:32.987Z,81.40
2022-10-03T22:55:03.802Z,81.67
2022-10-03T22:57:36.102Z,81.70
2022-10-03T23:00:08.434Z,81.66
2022-10-03T23:02:42.703Z,81.55
2022-10-03T23:05:17.375Z,81.61
2022-10-03T23:08:00.599Z,81.47
2022-10-03T23:10:42.717Z,81.58
2022-10-03T23:13:17.644Z,81.53
2022-10-03T23:15:51.132Z,82.10
2022-10-03T23:18:36.903Z,81.89
2022-10-03T23:21:07.940Z,81.82
2022-10-03T23:23:51.177Z,81.86
2022-10-03T23:26:38.093Z,81.73
2022-10-03T23:29:08.548Z,81.76
2022-10-03T23:31:55.658Z,81.68
2022-10-03T23:34:47.156Z,81.10
2022-10-03T23:37:38.441Z,81.03
2022-10-03T23:40:42.094Z,81.21
2022-10-03T23:43:34.707Z,81.08
2022-10-03T23:46:06.371Z,81.46
2022-10-03T23:48:44.394Z,81.31
2022-10-03T23:51:15.954Z,81.21
2022-10-03T23:53:47.551Z,81.63
2022-10-03T23:56:31.738Z,81.76
2022-10-03T23:59:21.349Z,81.88
